createdAt,value
2022-12-18T00:00:12.106Z,-4.14
2022-12-18T00:05:11.455Z,-4.14
2022-12-18T00:10:11.768Z,-4.11
2022-12-18T00:15:11.770Z,-4.23
2022-12-18T00:20:11.726Z,-4.30
2022-12-18T00:25:11.587Z,-4.22
2022-12-18T00:30:12.406Z,-4.47
2022-12-18T00:35:11.304Z,-4.53
2022-12-18T00:40:12.410Z,-4.54
2022-12-18T00:45:13.217Z,-4.48
2022-12-18T00:50:11.580Z,-4.37
2022-12-18T00:55:12.250Z,-4.40
2022-12-18T01:00:14.943Z,-4.39
2022-12-18T01:05:12.863Z,-4.35
2022-12-18T01:10:12.934Z,-4.41
2022-12-18T01:15:13.296Z,-4.37
2022-12-18T01:20:12.549Z,-4.48
2022-12-18T01:25:11.623Z,-4.44
2022-12-18T01:30:11.960Z,-4.41
2022-12-18T01:35:11.345Z,-4.35
2022-12-18T01:40:12.107Z,-4.28
2022-12-18T01:45:24.826Z,-4.14
2022-12-18T01:50:14.829Z,-4.10
2022-12-18T01:55:13.177Z,-4.28
2022-12-18T02:00:14.697Z,-4.33
2022-12-18T02:05:14.260Z,-4.29
2022-12-18T02:10:17.578Z,-4.41
2022-12-18T02:15:16.549Z,-4.46
2022-12-18T02:20:16.562Z,-4.53
2022-12-18T02:25:24.632Z,-4.53
2022-12-18T02:30:11.880Z,-4.60
2022-12-18T02:35:14.878Z,-4.69
2022-12-18T02:40:13.846Z,-4.72
2022-12-18T02:45:11.350Z,-4.63
2022-12-18T02:50:20.035Z,-4.55
2022-12-18T02:55:26.412Z,-4.66
2022-12-18T03:00:15.327Z,-4.56
2022-12-18T03:05:16.549Z,-4.72
2022-12-18T03:10:16.767Z,-4.81
2022-12-18T03:15:17.944Z,-4.79
2022-12-18T03:20:14.884Z,-4.85
2022-12-18T03:25:13.797Z,-4.75
2022-12-18T03:30:13.984Z,-4.83
2022-12-18T03:35:14.284Z,-4.74
2022-12-18T03:40:11.733Z,-4.91
2022-12-18T03:45:18.947Z,-5.02
2022-12-18T03:50:16.504Z,-4.88
2022-12-18T03:55:12.421Z,-4.89
2022-12-18T04:00:13.588Z,-4.98
2022-12-18T04:05:12.995Z,-5.00
2022-12-18T04:10:12.799Z,-4.98
2022-12-18T04:15:11.932Z,-4.82
2022-12-18T04:20:11.318Z,-4.86
2022-12-18T04:25:11.807Z,-4.99
2022-12-18T04:30:11.668Z,-5.05
2022-12-18T04:35:12.139Z,-5.01
2022-12-18T04:40:12.475Z,-4.90
2022-12-18T04:45:11.266Z,-5.08
2022-12-18T04:50:11.130Z,-5.20
2022-12-18T04:55:11.342Z,-5.23
2022-12-18T05:00:12.664Z,-5.38
2022-12-18T05:05:11.151Z,-5.42
2022-12-18T05:10:11.520Z,-5.31
2022-12-18T05:15:11.054Z,-5.40
2022-12-18T05:20:11.211Z,-5.44
2022-12-18T05:25:11.186Z,-5.40
2022-12-18T05:30:12.225Z,-5.41
2022-12-18T05:35:11.593Z,-5.45
2022-12-18T05:40:12.535Z,-5.42
2022-12-18T05:45:11.177Z,-5.47
2022-12-18T05:50:11.272Z,-5.50
2022-12-18T05:55:11.339Z,-5.46
2022-12-18T06:00:11.816Z,-5.31
2022-12-18T06:05:11.371Z,-5.54
2022-12-18T06:10:11.650Z,-5.64
2022-12-18T06:15:11.506Z,-5.59
2022-12-18T06:20:11.323Z,-5.61
2022-12-18T06:25:11.524Z,-5.41
2022-12-18T06:30:12.640Z,-5.42
2022-12-18T06:35:11.409Z,-5.43
2022-12-18T06:40:11.051Z,-5.42
2022-12-18T06:45:11.553Z,-5.36
2022-12-18T06:50:12.031Z,-5.19
2022-12-18T06:55:11.858Z,-5.02
2022-12-18T07:00:11.522Z,-5.09
2022-12-18T07:05:11.504Z,-5.06
2022-12-18T07:10:11.187Z,-5.12
2022-12-18T07:15:11.107Z,-5.02
2022-12-18T07:20:11.491Z,-4.95
2022-12-18T07:25:11.038Z,-4.77
2022-12-18T07:30:11.409Z,-4.58
2022-12-18T07:35:11.093Z,-4.46
2022-12-18T07:40:11.706Z,-4.37
2022-12-18T07:45:10.974Z,-4.31
2022-12-18T07:50:11.257Z,-4.30
2022-12-18T07:55:10.943Z,-4.44
2022-12-18T08:00:12.805Z,-4.31
2022-12-18T08:05:11.085Z,-4.25
2022-12-18T08:10:10.955Z,-4.26
2022-12-18T08:15:11.271Z,-4.20
2022-12-18T08:20:14.937Z,-4.19
2022-12-18T08:25:11.225Z,-4.02
2022-12-18T08:30:11.446Z,-3.85
2022-12-18T08:35:12.027Z,-3.82
2022-12-18T08:40:11.270Z,-3.74
2022-12-18T08:45:11.384Z,-3.70
2022-12-18T08:50:12.304Z,-3.54
2022-12-18T08:55:10.908Z,-3.44
2022-12-18T09:00:13.220Z,-3.39
2022-12-18T09:05:11.091Z,-3.18
2022-12-18T09:10:10.933Z,-3.05
2022-12-18T09:15:11.461Z,-2.94
2022-12-18T09:20:11.167Z,-3.00
2022-12-18T09:25:10.921Z,-3.19
2022-12-18T09:30:11.132Z,-3.05
2022-12-18T09:35:11.104Z,-2.95
2022-12-18T09:40:13.960Z,-2.80
2022-12-18T09:45:15.045Z,-2.73
2022-12-18T09:50:22.302Z,-2.67
2022-12-18T09:55:20.850Z,-2.47
2022-12-18T10:00:16.577Z,-2.27
2022-12-18T10:05:14.363Z,-2.12
2022-12-18T10:10:27.145Z,-2.18
2022-12-18T10:15:17.452Z,-2.17
2022-12-18T10:20:15.160Z,-2.05
2022-12-18T10:25:18.944Z,-2.26
2022-12-18T10:30:14.899Z,-2.30
2022-12-18T10:35:18.560Z,-2.37
2022-12-18T10:40:19.906Z,-2.33
2022-12-18T10:45:13.970Z,-2.23
2022-12-18T10:50:26.183Z,-2.26
2022-12-18T10:55:16.500Z,-2.26
2022-12-18T11:00:23.552Z,-2.30
2022-12-18T11:05:26.233Z,-2.15
2022-12-18T11:10:17.946Z,-2.17
2022-12-18T11:15:15.838Z,-2.31
2022-12-18T11:20:23.736Z,-2.24
2022-12-18T11:25:35.043Z,-2.29
2022-12-18T11:30:22.345Z,-2.20
2022-12-18T11:35:16.977Z,-2.21
2022-12-18T11:40:15.891Z,-2.25
2022-12-18T11:45:26.031Z,-2.37
2022-12-18T11:50:14.553Z,-2.48
2022-12-18T11:55:15.145Z,-2.30
2022-12-18T12:00:15.199Z,-2.17
2022-12-18T12:05:20.951Z,-2.23
2022-12-18T12:10:26.059Z,-2.15
2022-12-18T12:15:18.553Z,-2.25
2022-12-18T12:20:18.727Z,-2.19
2022-12-18T12:25:21.278Z,-2.22
2022-12-18T12:30:18.453Z,-2.07
2022-12-18T12:35:20.230Z,-1.95
2022-12-18T12:40:48.379Z,-1.97
2022-12-18T12:45:18.466Z,-2.00
2022-12-18T12:50:16.542Z,-2.17
2022-12-18T12:55:17.561Z,-2.13
2022-12-18T13:00:14.803Z,-2.09
2022-12-18T13:05:19.115Z,-2.00
2022-12-18T13:10:14.416Z,-2.13
2022-12-18T13:15:15.585Z,-2.19
2022-12-18T13:20:14.089Z,-2.29
2022-12-18T13:25:30.614Z,-2.32
2022-12-18T13:30:30.424Z,-2.40
2022-12-18T13:35:30.631Z,-2.30
2022-12-18T13:40:30.418Z,-2.37
2022-12-18T13:45:30.450Z,-2.55
2022-12-18T13:50:22.035Z,-2.67
2022-12-18T13:55:17.954Z,-2.75
2022-12-18T14:00:24.564Z,-2.74
2022-12-18T14:05:22.019Z,-2.83
2022-12-18T14:10:42.249Z,-2.99
2022-12-18T14:15:24.631Z,-3.17
2022-12-18T14:20:14.200Z,-3.29
2022-12-18T14:25:16.583Z,-3.32
2022-12-18T14:30:25.230Z,-3.27
2022-12-18T14:35:13.590Z,-3.29
2022-12-18T14:40:13.406Z,-3.23
2022-12-18T14:45:30.609Z,-3.29
2022-12-18T14:50:14.170Z,-3.29
2022-12-18T14:55:14.992Z,-3.41
2022-12-18T15:00:17.303Z,-3.42
2022-12-18T15:05:19.404Z,-3.51
2022-12-18T15:10:13.183Z,-3.44
2022-12-18T15:15:30.470Z,-3.57
2022-12-18T15:20:10.973Z,-3.59
2022-12-18T15:25:24.989Z,-3.62
2022-12-18T15:30:19.259Z,-3.67
2022-12-18T15:35:14.695Z,-3.62
2022-12-18T15:40:13.201Z,-3.60
2022-12-18T15:45:12.022Z,-3.57
2022-12-18T15:50:10.821Z,-3.55
2022-12-18T15:55:21.932Z,-3.57
2022-12-18T16:00:12.674Z,-3.56
2022-12-18T16:05:16.977Z,-3.60
2022-12-18T16:10:11.051Z,-3.59
2022-12-18T16:15:13.710Z,-3.52
2022-12-18T16:20:14.965Z,-3.39
2022-12-18T16:25:17.664Z,-3.41
2022-12-18T16:30:13.340Z,-3.38
2022-12-18T16:35:11.496Z,-3.33
2022-12-18T16:40:13.526Z,-3.26
2022-12-18T16:45:14.079Z,-3.27
2022-12-18T16:50:11.285Z,-3.37
2022-12-18T16:55:10.564Z,-3.38
2022-12-18T17:00:12.499Z,-3.32
2022-12-18T17:05:10.471Z,-3.33
2022-12-18T17:10:10.450Z,-3.38
2022-12-18T17:15:10.823Z,-3.35
2022-12-18T17:20:10.822Z,-3.42
2022-12-18T17:25:10.415Z,-3.49
2022-12-18T17:30:11.730Z,-3.52
2022-12-18T17:35:10.345Z,-3.52
2022-12-18T17:40:10.738Z,-3.59
2022-12-18T17:45:10.681Z,-3.65
2022-12-18T17:50:10.544Z,-3.71
2022-12-18T17:55:10.575Z,-3.73
2022-12-18T18:00:11.994Z,-3.79
2022-12-18T18:05:11.195Z,-3.90
2022-12-18T18:10:10.540Z,-3.90
2022-12-18T18:15:10.724Z,-3.93
2022-12-18T18:20:11.020Z,-3.97
2022-12-18T18:25:10.618Z,-3.94
2022-12-18T18:30:11.743Z,-4.00
2022-12-18T18:35:24.550Z,-4.14
2022-12-18T18:40:11.286Z,-4.15
2022-12-18T18:45:10.612Z,-4.17
2022-12-18T18:50:12.091Z,-4.20
2022-12-18T18:55:13.708Z,-4.24
2022-12-18T19:00:12.989Z,-4.35
2022-12-18T19:05:10.294Z,-4.48
2022-12-18T19:10:10.366Z,-4.65
2022-12-18T19:20:10.556Z,-4.56
2022-12-18T19:25:10.274Z,-4.55
2022-12-18T19:30:11.127Z,-4.66
2022-12-18T19:35:10.521Z,-4.67
2022-12-18T19:40:12.533Z,-4.72
2022-12-18T19:45:10.512Z,-4.89
2022-12-18T19:50:10.509Z,-4.94
2022-12-18T19:55:10.296Z,-4.91
2022-12-18T20:00:18.353Z,-4.98
2022-12-18T20:05:12.798Z,-4.96
2022-12-18T20:10:13.083Z,-5.14
2022-12-18T20:15:10.897Z,-5.09
2022-12-18T20:20:10.497Z,-5.08
2022-12-18T20:25:10.458Z,-5.04
2022-12-18T20:30:11.038Z,-5.07
2022-12-18T20:35:10.675Z,-5.07
2022-12-18T20:40:10.480Z,-5.13
2022-12-18T20:45:10.481Z,-5.07
2022-12-18T20:50:10.815Z,-5.07
2022-12-18T20:55:10.517Z,-5.02
2022-12-18T21:00:11.963Z,-5.23
2022-12-18T21:05:10.269Z,-5.25
2022-12-18T21:10:10.544Z,-5.12
2022-12-18T21:15:10.345Z,-5.14
2022-12-18T21:20:11.043Z,-5.23
2022-12-18T21:25:10.195Z,-5.21
2022-12-18T21:30:10.582Z,-5.25
2022-12-18T21:35:10.736Z,-5.24
2022-12-18T21:40:12.066Z,-5.25
2022-12-18T21:45:11.237Z,-5.19
2022-12-18T21:50:10.410Z,-5.34
2022-12-18T21:55:10.386Z,-5.34
2022-12-18T22:00:17.461Z,-5.39
2022-12-18T22:05:10.295Z,-5.42
2022-12-18T22:10:10.186Z,-5.46
2022-12-18T22:15:12.415Z,-5.42
2022-12-18T22:20:11.895Z,-5.51
2022-12-18T22:25:10.484Z,-5.55
2022-12-18T22:35:15.598Z,-5.27
2022-12-18T22:40:23.540Z,-5.48
2022-12-18T22:45:10.275Z,-5.51
2022-12-18T22:50:12.687Z,-5.49
2022-12-18T22:55:11.571Z,-5.60
2022-12-18T23:00:10.664Z,-5.73
2022-12-18T23:05:10.592Z,-5.72
2022-12-18T23:10:10.347Z,-5.69
2022-12-18T23:15:10.057Z,-5.64
2022-12-18T23:20:10.808Z,-5.87
2022-12-18T23:25:10.020Z,-5.81
2022-12-18T23:30:10.995Z,-5.83
2022-12-18T23:35:10.258Z,-5.82
2022-12-18T23:40:10.412Z,-5.97
2022-12-18T23:45:17.928Z,-5.98
2022-12-18T23:50:10.327Z,-6.00
2022-12-18T23:55:10.001Z,-5.91
